Time;durP1;ratioP1;P1;durP2;ratioP2;P2;SDS_P1;SDS_P2;PMS_P1;PMS_P2;Temp;Humidity;BMP_temperature;BMP_pressure;BME280_temperature;BME280_humidity;BME280_pressure;Samples;Min_cycle;Max_cycle;Signal;HPM_P1;HPM_P2
2024/03/28 00:02:43;;;;;;;7.97;5.10;;;8.90;1.00;;;;;;20356502;29;20051;-44
2024/03/28 00:12:43;;;;;;;8.27;4.97;;;8.90;1.00;;;;;;20356266;29;20392;-44
2024/03/28 00:22:45;;;;;;;8.68;4.57;;;9.00;1.00;;;;;;20352600;29;21027;-44
2024/03/28 00:32:48;;;;;;;6.43;4.13;;;9.00;1.00;;;;;;20350562;29;20062;-44
2024/03/28 00:42:48;;;;;;;7.50;4.82;;;8.90;1.00;;;;;;20352140;29;20043;-44
2024/03/28 00:52:49;;;;;;;6.45;4.85;;;8.80;1.00;;;;;;20351154;29;20420;-44
2024/03/28 01:02:49;;;;;;;7.57;4.45;;;8.70;1.00;;;;;;20350159;29;20361;-44
2024/03/28 01:12:50;;;;;;;6.53;4.25;;;8.50;1.00;;;;;;20349603;29;20046;-44
2024/03/28 01:22:51;;;;;;;7.43;4.53;;;8.40;1.00;;;;;;20348980;29;20083;-44
2024/03/28 01:32:51;;;;;;;7.18;4.30;;;8.40;1.00;;;;;;20347949;29;20550;-44
2024/03/28 01:43:01;;;;;;;6.35;4.50;;;8.30;1.00;;;;;;20351608;29;20071;-44
2024/03/28 01:53:02;;;;;;;7.70;4.55;;;8.30;1.00;;;;;;20364563;29;20681;-44
2024/03/28 02:03:03;;;;;;;6.45;4.50;;;8.10;1.00;;;;;;20347224;29;20086;-44
2024/03/28 02:13:04;;;;;;;5.80;4.40;;;8.00;1.00;;;;;;20359436;29;20032;-44
2024/03/28 02:23:05;;;;;;;8.18;4.43;;;7.90;1.00;;;;;;20363461;29;20127;-44
2024/03/28 02:33:05;;;;;;;5.82;4.30;;;7.80;1.00;;;;;;20362522;29;20036;-44
2024/03/28 02:43:06;;;;;;;5.60;4.20;;;7.80;1.00;;;;;;20360860;29;20047;-44
2024/03/28 02:53:07;;;;;;;5.37;3.83;;;7.70;1.00;;;;;;20341754;29;20048;-44
2024/03/28 03:03:07;;;;;;;6.87;3.80;;;7.80;1.00;;;;;;20357559;29;20494;-44
2024/03/28 03:13:08;;;;;;;5.88;3.53;;;7.80;1.00;;;;;;20359139;29;20051;-44
2024/03/28 03:23:10;;;;;;;5.13;3.42;;;7.80;1.00;;;;;;20344486;29;20394;-44
2024/03/28 03:43:30;;;;;;;4.43;3.00;;;7.80;1.00;;;;;;20358036;29;20048;-44
2024/03/28 03:53:31;;;;;;;5.75;2.58;;;7.90;1.00;;;;;;20356167;29;20502;-44
2024/03/28 04:03:31;;;;;;;4.47;2.90;;;7.90;1.00;;;;;;20354578;29;20046;-44
2024/03/28 04:13:32;;;;;;;3.40;2.40;;;8.00;1.00;;;;;;20357776;29;20551;-44
2024/03/28 04:23:32;;;;;;;4.30;2.63;;;8.00;1.00;;;;;;20340467;29;20040;-44
2024/03/28 04:33:33;;;;;;;4.40;2.63;;;8.00;1.00;;;;;;20357821;29;20051;-44
2024/03/28 04:43:34;;;;;;;4.60;2.90;;;8.10;1.00;;;;;;20352769;29;20175;-44
2024/03/28 04:53:34;;;;;;;5.72;2.83;;;8.10;1.00;;;;;;20353637;29;20050;-44
2024/03/28 05:03:36;;;;;;;4.28;2.70;;;8.00;1.00;;;;;;20354278;29;20040;-44
2024/03/28 05:13:36;;;;;;;3.53;2.30;;;8.10;1.00;;;;;;20357032;29;20524;-44
2024/03/28 05:23:37;;;;;;;5.57;2.88;;;8.10;1.00;;;;;;20377486;29;20062;-45
2024/03/28 05:33:37;;;;;;;4.32;2.67;;;8.10;1.00;;;;;;20381438;29;20068;-44
2024/03/28 05:43:38;;;;;;;6.38;2.65;;;8.20;1.00;;;;;;20377814;29;20073;-44
2024/03/28 05:53:43;;;;;;;5.13;3.00;;;8.20;1.00;;;;;;20378950;29;20079;-44
2024/03/28 06:03:43;;;;;;;4.70;2.80;;;8.20;1.00;;;;;;20375253;29;20126;-44
2024/03/28 06:13:44;;;;;;;5.35;3.00;;;8.20;1.00;;;;;;20374824;29;20044;-44
2024/03/28 06:23:45;;;;;;;5.18;3.40;;;8.10;1.00;;;;;;20382915;29;20032;-44
2024/03/28 06:33:49;;;;;;;4.72;3.10;;;8.20;1.00;;;;;;20369164;29;20083;-44
2024/03/28 06:43:50;;;;;;;4.93;3.50;;;8.30;1.00;;;;;;20368367;29;20080;-44
2024/03/28 06:53:50;;;;;;;5.80;3.70;;;8.30;1.00;;;;;;20367302;29;20448;-44
2024/03/28 07:03:51;;;;;;;5.40;3.40;;;8.40;1.00;;;;;;20365810;29;20054;-44
2024/03/28 07:13:52;;;;;;;5.75;3.17;;;8.60;1.00;;;;;;20366540;29;20043;-44
2024/03/28 07:23:52;;;;;;;7.38;4.13;;;8.70;1.00;;;;;;20365403;29;20102;-44
2024/03/28 07:33:53;;;;;;;9.73;4.30;;;8.60;1.00;;;;;;20324408;29;20398;-44
2024/03/28 07:43:53;;;;;;;7.78;4.10;;;8.60;1.00;;;;;;20205029;29;20152;-44
2024/03/28 07:53:54;;;;;;;5.70;3.75;;;8.60;1.00;;;;;;20210619;29;20037;-44
2024/03/28 08:03:54;;;;;;;4.65;2.80;;;8.50;1.00;;;;;;20204471;29;20044;-44
2024/03/28 08:13:55;;;;;;;2.90;1.52;;;8.30;1.00;;;;;;20205307;29;20413;-44
2024/03/28 08:23:56;;;;;;;1.75;0.82;;;8.20;1.00;;;;;;20206697;29;20047;-45
2024/03/28 08:33:56;;;;;;;1.45;0.85;;;7.80;1.00;;;;;;20202692;29;20132;-44
2024/03/28 08:43:57;;;;;;;2.20;1.08;;;7.60;10.00;;;;;;20200061;29;20040;-44
2024/03/28 08:53:58;;;;;;;2.72;1.08;;;7.50;29.10;;;;;;20202691;29;20079;-45
2024/03/28 09:03:59;;;;;;;2.40;1.13;;;7.40;49.70;;;;;;20202832;29;20398;-52
2024/03/28 09:13:59;;;;;;;3.15;1.80;;;7.40;90.50;;;;;;20203801;29;20045;-44
2024/03/28 09:24:00;;;;;;;3.00;1.63;;;7.20;99.90;;;;;;20212224;29;20409;-45
2024/03/28 09:34:00;;;;;;;3.73;1.90;;;7.20;99.90;;;;;;20201965;29;20048;-44
2024/03/28 09:44:05;;;;;;;2.55;1.45;;;7.30;99.90;;;;;;20198706;29;20876;-44
2024/03/28 09:54:08;;;;;;;2.92;1.92;;;7.30;99.90;;;;;;20202042;29;20037;-44
2024/03/28 10:04:19;;;;;;;2.95;1.65;;;7.50;99.90;;;;;;20202177;29;20060;-44
2024/03/28 10:14:26;;;;;;;3.83;2.25;;;7.40;99.90;;;;;;20175331;29;20047;-44
2024/03/28 10:24:28;;;;;;;3.72;2.20;;;7.50;99.90;;;;;;20211285;29;20669;-44
2024/03/28 10:34:28;;;;;;;6.72;3.78;;;7.70;99.90;;;;;;20204088;29;20044;-44
2024/03/28 10:44:30;;;;;;;7.18;5.05;;;8.10;99.90;;;;;;20208385;29;20040;-44
2024/03/28 10:54:40;;;;;;;6.72;4.45;;;8.50;99.90;;;;;;20207004;29;20080;-44
2024/03/28 11:04:43;;;;;;;6.45;3.90;;;8.80;99.90;;;;;;20207845;29;20064;-44
2024/03/28 11:15:04;;;;;;;6.55;4.28;;;8.90;99.90;;;;;;20206091;29;20044;-44
2024/03/28 11:25:28;;;;;;;14.07;4.43;;;9.60;99.80;;;;;;20205596;29;20116;-44
2024/03/28 11:35:29;;;;;;;7.82;1.70;;;9.80;41.30;;;;;;20270493;29;20047;-45
2024/03/28 11:45:30;;;;;;;6.30;0.93;;;9.90;10.30;;;;;;20359763;29;20095;-44
2024/03/28 11:55:31;;;;;;;6.88;0.93;;;9.90;1.00;;;;;;20344926;29;20039;-45
2024/03/28 12:05:32;;;;;;;6.23;0.60;;;10.20;1.00;;;;;;20363720;29;20102;-46
2024/03/28 12:15:33;;;;;;;10.98;1.52;;;10.50;1.00;;;;;;20362208;29;20134;-44
2024/03/28 12:25:34;;;;;;;4.45;0.93;;;10.70;1.00;;;;;;20359851;29;20039;-45
2024/03/28 12:35:35;;;;;;;2.85;0.60;;;11.00;1.00;;;;;;20348988;29;20036;-44
2024/03/28 12:45:36;;;;;;;3.25;1.05;;;11.80;1.00;;;;;;20358764;29;22609;-45
2024/03/28 12:55:37;;;;;;;4.78;1.85;;;12.20;1.00;;;;;;20358757;29;20040;-45
2024/03/28 13:05:37;;;;;;;4.28;1.52;;;12.30;1.00;;;;;;20358577;29;20050;-44
2024/03/28 13:15:38;;;;;;;2.90;0.90;;;13.40;1.00;;;;;;20356066;29;20344;-44
2024/03/28 13:25:39;;;;;;;1.42;0.80;;;14.20;1.00;;;;;;20356135;29;20039;-44
2024/03/28 13:35:40;;;;;;;3.20;1.50;;;14.80;1.00;;;;;;20337111;29;20056;-44
2024/03/28 13:45:41;;;;;;;1.77;0.77;;;13.80;1.00;;;;;;20368689;29;20071;-44
2024/03/28 13:55:42;;;;;;;1.95;0.80;;;14.20;1.00;;;;;;20365419;29;20416;-44
2024/03/28 14:05:43;;;;;;;2.28;0.60;;;13.70;1.00;;;;;;20366574;29;20401;-45
2024/03/28 14:15:44;;;;;;;4.60;0.68;;;14.50;1.00;;;;;;20363653;29;20462;-45
2024/03/28 14:25:44;;;;;;;2.00;0.60;;;14.00;1.00;;;;;;20365413;29;20035;-45
2024/03/28 14:35:45;;;;;;;2.10;0.60;;;12.90;1.00;;;;;;20366257;29;20040;-45
2024/03/28 14:45:46;;;;;;;4.35;0.80;;;12.20;1.00;;;;;;20364546;29;20048;-45
2024/03/28 14:55:53;;;;;;;3.00;0.65;;;12.10;1.00;;;;;;20358642;29;20036;-45
2024/03/28 15:05:55;;;;;;;2.97;0.50;;;12.40;1.00;;;;;;20362517;29;20135;-45
2024/03/28 15:15:55;;;;;;;2.88;0.45;;;12.30;1.00;;;;;;20361121;29;20040;-45
2024/03/28 15:25:56;;;;;;;4.20;0.70;;;11.80;1.00;;;;;;20361883;29;20165;-45
2024/03/28 15:35:57;;;;;;;3.45;0.50;;;11.60;1.00;;;;;;20361478;29;20054;-45
2024/03/28 15:45:57;;;;;;;2.78;0.90;;;11.50;1.00;;;;;;20357592;29;20055;-45
2024/03/28 15:56:07;;;;;;;3.55;0.80;;;11.20;1.00;;;;;;20356256;29;20756;-45
2024/03/28 16:06:23;;;;;;;5.60;0.90;;;10.70;1.00;;;;;;20358565;29;20039;-46
2024/03/28 16:16:24;;;;;;;3.65;0.73;;;10.60;1.00;;;;;;20358747;29;20040;-45
2024/03/28 16:26:25;;;;;;;3.17;0.85;;;10.70;1.00;;;;;;20357063;29;20044;-46
2024/03/28 16:36:26;;;;;;;3.22;1.00;;;10.80;1.00;;;;;;20351744;29;20542;-45
2024/03/28 16:46:26;;;;;;;4.93;0.60;;;11.00;1.00;;;;;;20346846;29;20044;-45
2024/03/28 16:56:27;;;;;;;4.65;0.80;;;11.00;1.00;;;;;;20352827;29;20040;-45
2024/03/28 17:06:27;;;;;;;4.30;0.68;;;11.10;1.00;;;;;;20354762;29;20075;-45
2024/03/28 17:16:28;;;;;;;5.05;1.40;;;11.20;1.00;;;;;;20336711;29;20112;-46
2024/03/28 17:26:29;;;;;;;4.82;0.80;;;11.10;1.00;;;;;;20354175;29;20080;-45
2024/03/28 17:36:30;;;;;;;4.05;1.35;;;11.30;1.00;;;;;;20352801;29;20922;-45
2024/03/28 17:46:30;;;;;;;4.68;1.05;;;11.30;1.00;;;;;;20348621;29;20043;-46
2024/03/28 17:56:31;;;;;;;5.22;1.00;;;11.30;1.00;;;;;;20349236;29;20492;-45
2024/03/28 18:06:31;;;;;;;2.15;0.70;;;11.40;1.00;;;;;;20353090;29;20048;-46
2024/03/28 18:16:34;;;;;;;3.20;0.70;;;11.50;1.00;;;;;;20353034;29;20451;-47
2024/03/28 18:26:34;;;;;;;4.95;0.77;;;11.60;1.00;;;;;;20357706;29;20891;-46
2024/03/28 18:36:35;;;;;;;5.03;0.60;;;11.40;1.00;;;;;;20365734;29;20124;-46
2024/03/28 18:46:36;;;;;;;6.85;0.90;;;11.40;1.00;;;;;;20362491;29;20047;-45
2024/03/28 18:56:37;;;;;;;5.07;0.80;;;11.20;1.00;;;;;;20360677;29;20457;-45
2024/03/28 19:06:38;;;;;;;5.68;1.45;;;11.30;1.00;;;;;;20364535;29;20408;-46
2024/03/28 19:16:38;;;;;;;4.82;0.93;;;11.20;1.00;;;;;;20365908;29;20400;-46
2024/03/28 19:26:39;;;;;;;7.53;0.88;;;11.10;1.00;;;;;;20361940;29;20390;-46
2024/03/28 19:36:39;;;;;;;2.87;0.80;;;11.10;1.00;;;;;;20362151;29;20058;-45
2024/03/28 19:46:40;;;;;;;5.35;0.80;;;11.00;1.00;;;;;;20361454;29;20413;-46
2024/03/28 19:56:41;;;;;;;5.70;0.70;;;11.10;1.00;;;;;;20346190;29;20154;-45
2024/03/28 20:06:41;;;;;;;2.08;0.63;;;11.20;1.00;;;;;;20341047;29;20415;-46
2024/03/28 20:16:42;;;;;;;3.50;0.75;;;11.10;1.00;;;;;;20347273;29;20126;-47
2024/03/28 20:26:42;;;;;;;5.22;1.42;;;10.90;1.00;;;;;;20350687;29;20051;-45
2024/03/28 20:36:44;;;;;;;5.60;1.90;;;10.70;1.00;;;;;;20347356;29;20051;-45
2024/03/28 20:46:47;;;;;;;1.95;0.60;;;10.80;1.00;;;;;;20349329;29;20055;-45
2024/03/28 20:56:51;;;;;;;4.75;0.70;;;10.80;1.00;;;;;;20310539;29;20100;-46
2024/03/28 21:16:56;;;;;;;3.17;0.65;;;10.80;1.00;;;;;;20340660;29;20588;-46
2024/03/28 21:26:57;;;;;;;3.90;0.47;;;10.80;1.00;;;;;;20333994;29;20044;-45
2024/03/28 21:36:57;;;;;;;4.25;0.82;;;10.70;1.00;;;;;;20344407;29;20056;-45
2024/03/28 21:46:58;;;;;;;4.27;0.77;;;10.70;1.00;;;;;;20340272;29;20232;-45
2024/03/28 21:56:59;;;;;;;7.45;0.77;;;10.60;1.00;;;;;;20340679;29;21015;-45
2024/03/28 22:07:00;;;;;;;4.60;0.90;;;10.50;1.00;;;;;;20355309;29;20051;-45
2024/03/28 22:17:00;;;;;;;4.55;1.00;;;10.50;1.00;;;;;;20345320;29;20040;-45
2024/03/28 22:27:01;;;;;;;6.00;0.82;;;10.40;1.00;;;;;;20355520;29;20040;-45
2024/03/28 22:37:01;;;;;;;3.97;0.68;;;10.30;1.00;;;;;;20367438;29;20051;-45
2024/03/28 22:47:02;;;;;;;6.82;0.88;;;10.20;1.00;;;;;;20364156;29;20039;-45
2024/03/28 22:57:04;;;;;;;4.57;0.73;;;10.10;1.00;;;;;;20365116;29;20115;-45
2024/03/28 23:07:06;;;;;;;4.10;0.80;;;10.00;1.00;;;;;;20362678;29;20463;-45
2024/03/28 23:17:08;;;;;;;8.15;0.93;;;10.00;1.00;;;;;;20356607;29;20095;-45
2024/03/28 23:27:09;;;;;;;6.78;1.15;;;10.00;1.00;;;;;;20361086;29;20100;-45
2024/03/28 23:37:09;;;;;;;3.70;0.90;;;10.00;1.00;;;;;;20360519;29;20954;-45
2024/03/28 23:47:10;;;;;;;7.32;1.00;;;10.00;1.00;;;;;;20351931;29;20077;-45
2024/03/28 23:57:10;;;;;;;5.57;0.80;;;10.00;1.00;;;;;;20357261;29;20044;-47
